createdAt,value
2022-09-09T00:02:39.382Z,71.62
2022-09-09T00:05:38.120Z,71.67
2022-09-09T00:08:06.070Z,71.65
2022-09-09T00:10:41.088Z,71.65
2022-09-09T00:13:38.820Z,71.72
2022-09-09T00:16:28.825Z,71.83
2022-09-09T00:19:07.034Z,71.90
2022-09-09T00:21:46.487Z,71.78
2022-09-09T00:25:13.559Z,71.81
2022-09-09T00:27:46.776Z,71.64
2022-09-09T00:30:24.202Z,71.70
2022-09-09T00:33:01.176Z,71.65
2022-09-09T00:35:35.260Z,71.69
2022-09-09T00:38:14.821Z,71.69
2022-09-09T00:41:20.618Z,71.70
2022-09-09T00:44:01.265Z,71.64
2022-09-09T00:47:19.641Z,71.52
2022-09-09T00:50:25.172Z,71.43
2022-09-09T00:52:58.325Z,71.49
2022-09-09T00:56:22.160Z,71.83
2022-09-09T00:59:37.020Z,71.87
2022-09-09T01:02:45.376Z,71.76
2022-09-09T01:05:25.148Z,71.69
2022-09-09T01:07:56.375Z,71.60
2022-09-09T01:10:58.390Z,71.31
2022-09-09T01:13:32.561Z,71.45
2022-09-09T01:16:12.684Z,71.58
2022-09-09T01:18:48.081Z,71.58
2022-09-09T01:21:39.011Z,71.62
2022-09-09T01:24:40.360Z,71.47
2022-09-09T01:27:48.677Z,71.72
2022-09-09T01:30:22.332Z,71.77
2022-09-09T01:33:00.922Z,71.97
2022-09-09T01:37:02.471Z,72.01
2022-09-09T01:39:32.893Z,72.30
2022-09-09T01:42:10.533Z,72.32
2022-09-09T01:44:39.097Z,72.24
2022-09-09T01:47:07.479Z,72.25
2022-09-09T01:49:46.048Z,72.17
2022-09-09T01:52:21.266Z,72.20
2022-09-09T01:54:51.525Z,72.24
2022-09-09T01:57:46.332Z,72.15
2022-09-09T02:00:14.886Z,72.25
2022-09-09T02:03:11.133Z,72.22
2022-09-09T02:06:21.361Z,72.21
2022-09-09T02:09:05.395Z,72.22
2022-09-09T02:11:35.091Z,72.15
2022-09-09T02:14:14.254Z,71.97
2022-09-09T02:17:03.837Z,71.98
2022-09-09T02:19:58.969Z,72.11
2022-09-09T02:22:44.633Z,71.98
2022-09-09T02:25:16.576Z,71.97
2022-09-09T02:27:46.420Z,71.87
2022-09-09T02:30:15.512Z,72.15
2022-09-09T02:32:49.759Z,72.09
2022-09-09T02:35:24.858Z,72.20
2022-09-09T02:37:54.861Z,72.15
2022-09-09T02:40:23.598Z,72.27
2022-09-09T02:42:57.533Z,72.16
2022-09-09T02:45:36.570Z,72.07
2022-09-09T02:48:35.491Z,72.00
2022-09-09T02:51:27.940Z,71.84
2022-09-09T02:54:17.499Z,71.84
2022-09-09T02:56:54.890Z,72.16
2022-09-09T02:59:26.028Z,72.24
2022-09-09T03:01:54.528Z,72.20
2022-09-09T03:04:22.693Z,72.43
2022-09-09T03:06:50.258Z,72.38
2022-09-09T03:09:20.348Z,72.30
2022-09-09T03:11:48.009Z,72.20
2022-09-09T03:14:17.234Z,72.26
2022-09-09T03:16:45.057Z,72.27
2022-09-09T03:19:12.842Z,72.37
2022-09-09T03:21:41.802Z,72.33
2022-09-09T03:24:10.273Z,72.37
2022-09-09T03:26:38.238Z,72.63
2022-09-09T03:29:07.961Z,72.62
2022-09-09T03:31:37.061Z,72.75
2022-09-09T03:34:04.904Z,72.58
2022-09-09T03:36:33.907Z,72.63
2022-09-09T03:39:03.422Z,72.68
2022-09-09T03:41:31.894Z,72.74
2022-09-09T03:43:59.903Z,72.72
2022-09-09T03:46:27.792Z,73.04
2022-09-09T03:48:56.033Z,73.05
2022-09-09T03:51:23.373Z,73.06
2022-09-09T03:53:51.430Z,73.08
2022-09-09T03:56:19.055Z,72.92
2022-09-09T03:58:46.737Z,72.82
2022-09-09T04:01:15.095Z,72.94
2022-09-09T04:03:44.152Z,73.02
2022-09-09T04:06:13.972Z,72.73
2022-09-09T04:08:43.224Z,72.78
2022-09-09T04:11:11.209Z,72.65
2022-09-09T04:13:39.771Z,72.50
2022-09-09T04:16:10.916Z,72.53
2022-09-09T04:18:39.238Z,72.45
2022-09-09T04:21:10.710Z,71.96
2022-09-09T04:23:40.601Z,71.83
2022-09-09T04:26:08.351Z,71.70
2022-09-09T04:28:37.961Z,71.33
2022-09-09T04:31:17.341Z,71.16
2022-09-09T04:33:46.341Z,71.09
2022-09-09T04:36:14.256Z,71.11
2022-09-09T04:38:45.019Z,71.13
2022-09-09T04:41:13.658Z,70.92
2022-09-09T04:43:42.065Z,70.84
2022-09-09T04:46:09.832Z,70.81
2022-09-09T04:48:37.602Z,70.79
2022-09-09T04:51:08.314Z,70.73
2022-09-09T04:53:36.289Z,70.71
2022-09-09T04:56:23.406Z,70.67
2022-09-09T04:58:57.236Z,70.72
2022-09-09T05:01:31.019Z,70.53
2022-09-09T05:04:04.064Z,70.76
2022-09-09T05:06:33.432Z,70.53
2022-09-09T05:09:03.883Z,70.44
2022-09-09T05:11:36.631Z,70.38
2022-09-09T05:14:47.043Z,70.41
2022-09-09T05:17:16.960Z,70.29
2022-09-09T05:19:45.063Z,69.93
2022-09-09T05:22:12.911Z,69.94
2022-09-09T05:24:44.827Z,69.91
2022-09-09T05:27:13.010Z,69.89
2022-09-09T05:29:43.963Z,69.68
2022-09-09T05:32:15.196Z,69.48
2022-09-09T05:34:43.735Z,69.14
2022-09-09T05:37:11.268Z,68.92
2022-09-09T05:39:38.921Z,68.82
2022-09-09T05:42:07.409Z,68.69
2022-09-09T05:44:35.131Z,68.47
2022-09-09T05:47:03.272Z,68.64
2022-09-09T05:49:31.067Z,68.24
2022-09-09T05:51:58.571Z,68.02
2022-09-09T05:54:26.209Z,67.93
2022-09-09T05:56:54.593Z,67.84
2022-09-09T05:59:24.339Z,67.51
2022-09-09T06:01:53.017Z,67.25
2022-09-09T06:04:25.388Z,67.26
2022-09-09T06:06:52.979Z,67.23
2022-09-09T06:09:22.119Z,66.88
2022-09-09T06:11:50.718Z,66.48
2022-09-09T06:14:22.404Z,66.53
2022-09-09T06:16:50.785Z,66.30
2022-09-09T06:19:21.602Z,65.78
2022-09-09T06:21:49.726Z,65.49
2022-09-09T06:24:19.923Z,65.32
2022-09-09T06:26:47.575Z,65.09
2022-09-09T06:29:20.198Z,64.94
2022-09-09T06:31:48.162Z,64.53
2022-09-09T06:34:19.291Z,64.61
2022-09-09T06:36:49.294Z,64.85
2022-09-09T06:39:17.339Z,64.73
2022-09-09T06:41:45.872Z,64.53
2022-09-09T06:44:36.960Z,64.18
2022-09-09T06:47:05.974Z,64.13
2022-09-09T06:49:35.667Z,64.04
2022-09-09T06:52:04.601Z,63.63
2022-09-09T06:54:32.426Z,63.50
2022-09-09T06:57:11.138Z,63.32
2022-09-09T06:59:48.944Z,62.96
2022-09-09T07:02:16.765Z,62.70
2022-09-09T07:04:45.304Z,62.49
2022-09-09T07:07:14.236Z,62.23
2022-09-09T07:09:41.931Z,62.06
2022-09-09T07:12:10.249Z,61.76
2022-09-09T07:14:38.821Z,61.27
2022-09-09T07:17:07.274Z,61.26
2022-09-09T07:19:37.739Z,61.24
2022-09-09T07:22:06.862Z,60.73
2022-09-09T07:24:34.913Z,60.24
2022-09-09T07:27:03.996Z,60.05
2022-09-09T07:29:31.723Z,59.62
2022-09-09T07:31:59.957Z,59.67
2022-09-09T07:34:34.182Z,59.56
2022-09-09T07:37:01.767Z,59.47
2022-09-09T07:39:30.268Z,59.42
2022-09-09T07:41:59.357Z,59.08
2022-09-09T07:44:27.857Z,58.70
2022-09-09T07:47:07.780Z,58.25
2022-09-09T07:49:38.364Z,58.29
2022-09-09T07:54:40.394Z,58.30
2022-09-09T07:57:08.621Z,58.09
2022-09-09T07:59:37.104Z,57.23
2022-09-09T08:02:04.914Z,56.70
2022-09-09T08:04:34.349Z,56.56
2022-09-09T08:07:03.754Z,56.74
2022-09-09T08:09:34.415Z,56.31
2022-09-09T08:12:08.840Z,55.92
2022-09-09T08:14:36.404Z,55.74
2022-09-09T08:17:04.175Z,55.03
2022-09-09T08:19:36.650Z,54.27
2022-09-09T08:22:05.361Z,54.19
2022-09-09T08:24:33.938Z,54.11
2022-09-09T08:27:01.906Z,53.69
2022-09-09T08:29:30.039Z,54.08
2022-09-09T08:31:59.621Z,53.95
2022-09-09T08:34:28.642Z,53.57
2022-09-09T08:36:56.960Z,52.21
2022-09-09T08:39:29.925Z,51.42
2022-09-09T08:42:03.129Z,51.24
2022-09-09T08:45:16.670Z,51.32
2022-09-09T08:48:01.159Z,50.94
2022-09-09T08:50:39.154Z,50.50
2022-09-09T08:53:20.680Z,50.05
2022-09-09T08:56:23.082Z,49.89
2022-09-09T08:58:55.566Z,50.06
2022-09-09T09:01:50.704Z,50.19
2022-09-09T09:04:38.543Z,49.83
2022-09-09T09:07:32.925Z,48.98
2022-09-09T09:10:42.710Z,48.89
2022-09-09T09:13:43.861Z,49.15
2022-09-09T09:16:41.460Z,49.14
2022-09-09T09:19:16.814Z,48.62
2022-09-09T09:21:53.650Z,48.38
2022-09-09T09:24:28.723Z,48.44
2022-09-09T09:27:01.531Z,48.85
2022-09-09T09:29:29.115Z,48.93
2022-09-09T09:31:59.824Z,48.98
2022-09-09T09:34:28.914Z,48.52
2022-09-09T09:36:58.436Z,48.41
2022-09-09T09:42:27.192Z,48.06
2022-09-09T09:44:56.576Z,48.36
2022-09-09T09:47:24.685Z,48.12
2022-09-09T09:50:21.004Z,48.00
2022-09-09T09:53:02.139Z,47.61
2022-09-09T09:55:32.860Z,47.63
2022-09-09T09:58:17.857Z,47.72
2022-09-09T10:00:52.830Z,47.41
2022-09-09T10:03:26.936Z,47.50
2022-09-09T10:05:59.819Z,47.72
2022-09-09T10:08:28.899Z,47.45
2022-09-09T10:11:24.152Z,47.96
2022-09-09T10:14:12.512Z,47.96
2022-09-09T10:17:08.163Z,48.01
2022-09-09T10:19:38.202Z,48.34
2022-09-09T10:22:29.196Z,48.38
2022-09-09T10:25:14.827Z,48.48
2022-09-09T10:27:47.218Z,49.01
2022-09-09T10:31:00.251Z,48.84
2022-09-09T10:34:31.042Z,48.92
2022-09-09T10:37:18.042Z,49.22
2022-09-09T10:39:47.381Z,49.39
2022-09-09T10:42:18.068Z,49.50
2022-09-09T10:44:58.843Z,49.28
2022-09-09T10:47:39.475Z,49.62
2022-09-09T10:54:00.439Z,50.79
2022-09-09T10:56:29.856Z,51.24
2022-09-09T10:59:13.001Z,52.28
2022-09-09T11:02:07.233Z,53.69
2022-09-09T11:04:51.226Z,54.31
2022-09-09T11:07:38.941Z,55.32
2022-09-09T11:10:40.809Z,56.33
2022-09-09T11:13:22.723Z,56.40
2022-09-09T11:16:13.975Z,56.78
2022-09-09T11:18:47.118Z,57.59
2022-09-09T11:21:28.394Z,57.85
2022-09-09T11:24:26.991Z,58.39
2022-09-09T11:27:14.532Z,58.82
2022-09-09T11:30:01.316Z,59.36
2022-09-09T11:33:11.383Z,60.09
2022-09-09T11:36:07.241Z,59.70
2022-09-09T11:38:51.986Z,59.99
2022-09-09T11:41:22.067Z,59.71
2022-09-09T11:43:53.613Z,59.72
2022-09-09T11:46:34.419Z,59.58
2022-09-09T11:49:05.975Z,58.69
2022-09-09T11:51:35.940Z,58.75
2022-09-09T11:54:49.835Z,58.63
2022-09-09T11:57:33.862Z,58.07
2022-09-09T12:00:06.659Z,57.68
2022-09-09T12:02:52.703Z,57.52
2022-09-09T12:05:21.789Z,57.56
2022-09-09T12:07:59.745Z,57.53
2022-09-09T12:10:34.525Z,56.77
2022-09-09T12:13:27.417Z,57.49
2022-09-09T12:15:57.740Z,58.07
2022-09-09T12:18:37.900Z,58.10
2022-09-09T12:22:03.359Z,57.90
2022-09-09T12:24:47.448Z,57.46
2022-09-09T12:27:46.563Z,57.16
2022-09-09T12:30:17.066Z,57.09
2022-09-09T12:32:48.183Z,56.59
2022-09-09T12:35:27.630Z,56.64
2022-09-09T12:38:07.829Z,56.68
2022-09-09T12:40:39.974Z,55.93
2022-09-09T12:43:31.389Z,55.83
2022-09-09T12:46:09.461Z,56.57
2022-09-09T12:49:53.054Z,55.97
2022-09-09T12:52:40.710Z,55.81
2022-09-09T12:55:09.275Z,55.58
2022-09-09T12:57:59.986Z,55.43
2022-09-09T13:00:28.710Z,55.16
2022-09-09T13:03:02.025Z,54.72
2022-09-09T13:05:37.552Z,54.77
2022-09-09T13:08:08.527Z,54.34
2022-09-09T13:11:01.857Z,53.80
2022-09-09T13:13:42.170Z,53.53
2022-09-09T13:16:34.905Z,53.08
2022-09-09T13:19:15.755Z,53.06
2022-09-09T13:21:43.569Z,53.51
2022-09-09T13:24:33.791Z,53.79
2022-09-09T13:27:32.338Z,53.41
2022-09-09T13:30:01.645Z,53.26
2022-09-09T13:32:29.812Z,53.04
2022-09-09T13:35:03.253Z,52.84
2022-09-09T13:37:40.665Z,52.66
2022-09-09T13:40:24.643Z,52.95
2022-09-09T13:42:57.699Z,53.10
2022-09-09T13:45:31.385Z,53.37
2022-09-09T13:48:09.495Z,53.37
2022-09-09T13:50:37.189Z,53.51
2022-09-09T13:53:07.705Z,53.46
2022-09-09T13:55:37.476Z,53.77
2022-09-09T13:58:06.425Z,53.86
2022-09-09T14:00:35.660Z,53.83
2022-09-09T14:03:03.917Z,53.90
2022-09-09T14:05:34.039Z,53.86
2022-09-09T14:08:07.142Z,54.09
2022-09-09T14:10:38.083Z,54.13
2022-09-09T14:13:05.454Z,54.31
2022-09-09T14:15:33.290Z,54.46
2022-09-09T14:18:00.709Z,54.69
2022-09-09T14:20:28.221Z,54.54
2022-09-09T14:23:03.384Z,54.82
2022-09-09T14:25:32.224Z,54.96
2022-09-09T14:28:10.866Z,55.31
2022-09-09T14:30:42.445Z,55.66
2022-09-09T14:33:15.201Z,55.69
2022-09-09T14:35:44.888Z,56.27
2022-09-09T14:38:16.908Z,56.60
2022-09-09T14:40:47.501Z,56.88
2022-09-09T14:43:16.013Z,57.02
2022-09-09T14:45:57.219Z,57.29
2022-09-09T14:48:38.770Z,57.45
2022-09-09T14:51:17.903Z,57.55
2022-09-09T14:53:45.735Z,57.57
2022-09-09T14:56:40.765Z,57.69
2022-09-09T14:59:08.319Z,57.82
2022-09-09T15:01:46.029Z,57.93
2022-09-09T15:04:15.422Z,57.92
2022-09-09T15:06:45.125Z,58.25
2022-09-09T15:09:32.846Z,58.70
2022-09-09T15:12:01.428Z,59.35
2022-09-09T15:14:29.146Z,59.81
2022-09-09T15:16:56.654Z,60.07
2022-09-09T15:19:26.291Z,60.39
2022-09-09T15:21:54.367Z,60.83
2022-09-09T15:24:21.617Z,61.20
2022-09-09T15:26:49.203Z,61.41
2022-09-09T15:29:16.793Z,61.83
2022-09-09T15:31:44.473Z,62.02
2022-09-09T15:34:14.288Z,62.22
2022-09-09T15:36:45.021Z,62.55
2022-09-09T15:39:18.563Z,62.73
2022-09-09T15:41:50.887Z,63.23
2022-09-09T15:44:19.614Z,63.70
2022-09-09T15:46:51.016Z,63.87
2022-09-09T15:49:25.365Z,64.08
2022-09-09T15:52:06.171Z,64.54
2022-09-09T15:54:37.274Z,64.91
2022-09-09T15:57:07.308Z,65.11
2022-09-09T15:59:35.619Z,65.25
2022-09-09T16:02:03.941Z,65.53
2022-09-09T16:04:34.704Z,65.80
2022-09-09T16:07:05.225Z,66.06
2022-09-09T16:09:37.807Z,66.22
2022-09-09T16:12:10.450Z,66.36
2022-09-09T16:14:39.442Z,66.68
2022-09-09T16:17:07.001Z,67.18
2022-09-09T16:19:35.178Z,67.30
2022-09-09T16:22:03.432Z,67.80
2022-09-09T16:24:31.344Z,67.98
2022-09-09T16:26:58.695Z,68.33
2022-09-09T16:29:27.851Z,68.60
2022-09-09T16:31:58.855Z,69.11
2022-09-09T16:34:30.383Z,69.50
2022-09-09T16:36:57.747Z,69.58
2022-09-09T16:39:25.411Z,69.98
2022-09-09T16:41:52.919Z,70.23
2022-09-09T16:44:20.563Z,70.27
2022-09-09T16:46:49.284Z,70.50
2022-09-09T16:49:17.112Z,70.72
2022-09-09T16:51:48.614Z,70.81
2022-09-09T16:54:18.873Z,70.68
2022-09-09T16:56:51.713Z,70.42
2022-09-09T16:59:21.543Z,70.26
2022-09-09T17:01:51.921Z,70.39
2022-09-09T17:04:25.722Z,70.97
2022-09-09T17:06:54.943Z,71.31
2022-09-09T17:09:23.377Z,71.51
2022-09-09T17:11:52.794Z,71.61
2022-09-09T17:14:21.885Z,71.80
2022-09-09T17:16:49.619Z,72.09
2022-09-09T17:19:17.240Z,72.33
2022-09-09T17:22:12.581Z,72.30
2022-09-09T17:24:38.848Z,72.72
2022-09-09T17:27:06.798Z,72.60
2022-09-09T17:29:36.494Z,72.45
2022-09-09T17:32:05.968Z,72.48
2022-09-09T17:34:34.951Z,72.20
2022-09-09T17:37:02.408Z,72.12
2022-09-09T17:39:29.974Z,72.18
2022-09-09T17:41:57.950Z,72.11
2022-09-09T17:44:25.545Z,72.01
2022-09-09T17:46:52.956Z,71.98
2022-09-09T17:49:20.410Z,72.08
2022-09-09T17:51:48.362Z,72.10
2022-09-09T17:54:19.881Z,72.31
2022-09-09T17:56:49.269Z,72.19
2022-09-09T17:59:18.489Z,72.36
2022-09-09T18:01:49.433Z,72.43
2022-09-09T18:04:18.556Z,72.55
2022-09-09T18:06:51.384Z,72.85
2022-09-09T18:09:24.965Z,72.89
2022-09-09T18:11:55.901Z,73.00
2022-09-09T18:14:28.253Z,73.14
2022-09-09T18:16:55.701Z,73.24
2022-09-09T18:19:28.542Z,73.32
2022-09-09T18:21:58.877Z,73.56
2022-09-09T18:24:30.007Z,73.70
2022-09-09T18:26:58.030Z,73.77
2022-09-09T18:29:25.846Z,74.21
2022-09-09T18:31:55.203Z,74.66
2022-09-09T18:34:25.241Z,75.47
2022-09-09T18:36:55.491Z,76.24
2022-09-09T18:39:27.657Z,77.05
2022-09-09T18:41:59.937Z,77.50
2022-09-09T18:44:31.108Z,78.10
2022-09-09T18:46:58.383Z,78.69
2022-09-09T18:49:26.324Z,78.97
2022-09-09T18:51:54.072Z,79.60
2022-09-09T18:54:29.094Z,79.76
2022-09-09T18:56:56.934Z,80.53
2022-09-09T18:59:24.400Z,80.77
2022-09-09T19:01:53.546Z,81.48
2022-09-09T19:04:23.759Z,81.64
2022-09-09T19:06:57.225Z,81.51
2022-09-09T19:09:29.123Z,81.57
2022-09-09T19:11:57.844Z,82.06
2022-09-09T19:14:25.506Z,82.35
2022-09-09T19:16:53.244Z,82.46
2022-09-09T19:19:24.120Z,82.87
2022-09-09T19:21:51.710Z,82.89
2022-09-09T19:24:22.315Z,83.46
2022-09-09T19:26:52.642Z,83.70
2022-09-09T19:29:23.260Z,84.08
2022-09-09T19:32:25.291Z,84.43
2022-09-09T19:34:40.249Z,84.76
2022-09-09T19:37:07.656Z,85.06
2022-09-09T19:39:35.261Z,85.30
2022-09-09T19:42:03.043Z,85.59
2022-09-09T19:44:30.559Z,85.88
2022-09-09T19:47:00.420Z,85.96
2022-09-09T19:49:29.642Z,86.30
2022-09-09T19:51:57.122Z,86.49
2022-09-09T19:54:24.752Z,86.73
2022-09-09T19:56:52.451Z,86.99
2022-09-09T19:59:20.512Z,87.17
2022-09-09T20:01:48.113Z,87.13
2022-09-09T20:04:17.383Z,87.47
2022-09-09T20:06:45.918Z,87.40
2022-09-09T20:09:16.694Z,87.57
2022-09-09T20:11:46.176Z,87.83
2022-09-09T20:14:14.940Z,88.19
2022-09-09T20:16:42.806Z,88.19
2022-09-09T20:19:12.696Z,87.95
2022-09-09T20:21:47.347Z,87.99
2022-09-09T20:24:20.062Z,88.33
2022-09-09T20:26:48.483Z,88.36
2022-09-09T20:29:19.188Z,88.37
2022-09-09T20:31:47.892Z,88.27
2022-09-09T20:34:19.262Z,88.30
2022-09-09T20:36:48.049Z,88.35
2022-09-09T20:39:19.553Z,88.38
2022-09-09T20:41:47.725Z,88.79
2022-09-09T20:44:22.390Z,89.22
2022-09-09T20:47:02.390Z,89.48
2022-09-09T20:49:30.155Z,89.50
2022-09-09T20:51:57.694Z,89.52
2022-09-09T20:54:29.834Z,89.88
2022-09-09T20:56:58.555Z,89.77
2022-09-09T20:59:28.403Z,89.74
2022-09-09T21:01:56.497Z,89.64
2022-09-09T21:04:24.845Z,89.60
2022-09-09T21:06:52.660Z,89.90
2022-09-09T21:09:22.800Z,90.07
2022-09-09T21:11:53.137Z,89.89
2022-09-09T21:14:21.737Z,89.92
2022-09-09T21:16:49.431Z,89.92
2022-09-09T21:19:17.072Z,89.86
2022-09-09T21:21:46.293Z,89.83
2022-09-09T21:24:14.129Z,89.97
2022-09-09T21:26:41.683Z,89.98
2022-09-09T21:29:11.929Z,89.70
2022-09-09T21:31:44.280Z,89.69
2022-09-09T21:34:12.870Z,89.60
2022-09-09T21:36:40.522Z,89.45
2022-09-09T21:39:08.081Z,89.40
2022-09-09T21:41:36.531Z,89.03
2022-09-09T21:44:04.212Z,89.13
2022-09-09T21:46:31.979Z,89.02
2022-09-09T21:49:03.783Z,89.04
2022-09-09T21:51:31.393Z,88.79
2022-09-09T21:53:59.481Z,88.83
2022-09-09T21:56:27.178Z,88.79
2022-09-09T21:59:02.037Z,88.76
2022-09-09T22:01:31.404Z,88.67
2022-09-09T22:04:01.143Z,88.41
2022-09-09T22:06:28.653Z,88.40
2022-09-09T22:08:58.473Z,88.15
2022-09-09T22:11:26.157Z,87.90
2022-09-09T22:14:11.786Z,87.83
2022-09-09T22:16:39.832Z,87.69
2022-09-09T22:19:08.535Z,87.54
2022-09-09T22:21:36.064Z,87.52
2022-09-09T22:24:05.585Z,87.23
2022-09-09T22:26:35.900Z,87.18
2022-09-09T22:29:05.113Z,87.10
2022-09-09T22:32:26.084Z,87.05
2022-09-09T22:34:53.608Z,87.18
2022-09-09T22:37:22.659Z,87.11
2022-09-09T22:39:50.439Z,87.09
2022-09-09T22:42:17.977Z,87.00
2022-09-09T22:44:45.642Z,87.16
2022-09-09T22:47:13.097Z,87.00
2022-09-09T22:49:40.609Z,87.07
2022-09-09T22:52:09.601Z,87.00
2022-09-09T22:54:36.990Z,86.87
2022-09-09T22:57:04.619Z,86.89
2022-09-09T22:59:32.169Z,87.01
2022-09-09T23:01:59.783Z,86.95
2022-09-09T23:04:27.459Z,86.87
2022-09-09T23:06:55.160Z,86.79
2022-09-09T23:09:22.700Z,86.94
2022-09-09T23:11:51.097Z,86.77
2022-09-09T23:14:27.737Z,87.06
2022-09-09T23:16:55.235Z,87.23
2022-09-09T23:19:23.555Z,87.18
2022-09-09T23:21:53.069Z,87.35
2022-09-09T23:24:20.609Z,87.59
2022-09-09T23:26:48.113Z,87.63
2022-09-09T23:29:15.638Z,87.88
2022-09-09T23:31:45.037Z,88.06
2022-09-09T23:34:13.551Z,88.52
2022-09-09T23:36:41.316Z,88.61
2022-09-09T23:39:09.176Z,88.86
2022-09-09T23:41:37.232Z,88.99
2022-09-09T23:44:05.313Z,89.07
2022-09-09T23:46:33.800Z,89.11
2022-09-09T23:49:02.180Z,89.24
2022-09-09T23:51:31.262Z,89.36
2022-09-09T23:54:01.393Z,89.51
2022-09-09T23:56:34.969Z,89.56
2022-09-09T23:59:02.830Z,89.83
